sensor_id;sensor_type;location;lat;lon;timestamp;temperature;humidity
17333;DHT22;8784;50.94667800;7.08448400;2023-01-31T00:00:30;7.30;99.90
17333;DHT22;8784;50.94667800;7.08448400;2023-01-31T00:02:57;7.30;99.90
17333;DHT22;8784;50.94667800;7.08448400;2023-01-31T00:05:25;7.30;99.90
17333;DHT22;8784;50.94667800;7.08448400;2023-01-31T00:07:52;7.30;99.90
17333;DHT22;8784;50.94667800;7.08448400;2023-01-31T00:10:20;7.20;99.90
17333;DHT22;8784;50.94667800;7.08448400;2023-01-31T00:12:46;7.30;99.90
17333;DHT22;8784;50.94667800;7.08448400;2023-01-31T00:15:13;7.30;99.90
17333;DHT22;8784;50.94667800;7.08448400;2023-01-31T00:17:42;7.30;99.90
17333;DHT22;8784;50.94667800;7.08448400;2023-01-31T00:20:10;7.20;99.90
17333;DHT22;8784;50.94667800;7.08448400;2023-01-31T00:22:37;7.30;99.90
17333;DHT22;8784;50.94667800;7.08448400;2023-01-31T00:25:05;7.20;99.90
17333;DHT22;8784;50.94667800;7.08448400;2023-01-31T00:27:32;7.30;99.90
17333;DHT22;8784;50.94667800;7.08448400;2023-01-31T00:29:59;7.30;99.90
17333;DHT22;8784;50.94667800;7.08448400;2023-01-31T00:32:26;7.20;99.90
17333;DHT22;8784;50.94667800;7.08448400;2023-01-31T00:34:55;7.30;99.90
17333;DHT22;8784;50.94667800;7.08448400;2023-01-31T00:37:22;7.30;99.90
17333;DHT22;8784;50.94667800;7.08448400;2023-01-31T00:39:49;7.30;99.90
17333;DHT22;8784;50.94667800;7.08448400;2023-01-31T00:42:16;7.30;99.90
17333;DHT22;8784;50.94667800;7.08448400;2023-01-31T00:44:43;7.30;99.90
17333;DHT22;8784;50.94667800;7.08448400;2023-01-31T00:47:10;7.30;99.90
17333;DHT22;8784;50.94667800;7.08448400;2023-01-31T00:49:36;7.20;99.90
17333;DHT22;8784;50.94667800;7.08448400;2023-01-31T00:52:06;7.20;99.90
17333;DHT22;8784;50.94667800;7.08448400;2023-01-31T00:54:32;7.10;99.90
17333;DHT22;8784;50.94667800;7.08448400;2023-01-31T00:57:00;7.30;99.90
17333;DHT22;8784;50.94667800;7.08448400;2023-01-31T00:59:27;7.20;99.90
17333;DHT22;8784;50.94667800;7.08448400;2023-01-31T01:01:54;7.10;99.90
17333;DHT22;8784;50.94667800;7.08448400;2023-01-31T01:04:21;7.20;99.90
17333;DHT22;8784;50.94667800;7.08448400;2023-01-31T01:06:48;7.10;99.90
17333;DHT22;8784;50.94667800;7.08448400;2023-01-31T01:09:16;7.10;99.90
17333;DHT22;8784;50.94667800;7.08448400;2023-01-31T01:11:43;7.10;99.90
17333;DHT22;8784;50.94667800;7.08448400;2023-01-31T01:14:11;7.10;99.90
17333;DHT22;8784;50.94667800;7.08448400;2023-01-31T01:16:39;7.10;99.90
17333;DHT22;8784;50.94667800;7.08448400;2023-01-31T01:19:09;7.10;99.90
17333;DHT22;8784;50.94667800;7.08448400;2023-01-31T01:21:37;7.10;99.90
17333;DHT22;8784;50.94667800;7.08448400;2023-01-31T01:24:06;7.10;99.90
17333;DHT22;8784;50.94667800;7.08448400;2023-01-31T01:26:36;7.00;99.90
17333;DHT22;8784;50.94667800;7.08448400;2023-01-31T01:29:03;7.00;99.90
17333;DHT22;8784;50.94667800;7.08448400;2023-01-31T01:31:30;7.00;99.90
17333;DHT22;8784;50.94667800;7.08448400;2023-01-31T01:33:58;7.00;99.90
17333;DHT22;8784;50.94667800;7.08448400;2023-01-31T01:36:26;7.00;99.90
17333;DHT22;8784;50.94667800;7.08448400;2023-01-31T01:38:53;6.90;99.90
17333;DHT22;8784;50.94667800;7.08448400;2023-01-31T01:41:21;6.90;99.90
17333;DHT22;8784;50.94667800;7.08448400;2023-01-31T01:43:51;6.90;99.90
17333;DHT22;8784;50.94667800;7.08448400;2023-01-31T01:46:24;7.10;99.90
17333;DHT22;8784;50.94667800;7.08448400;2023-01-31T01:48:54;7.00;99.90
17333;DHT22;8784;50.94667800;7.08448400;2023-01-31T01:51:24;7.00;99.90
17333;DHT22;8784;50.94667800;7.08448400;2023-01-31T01:53:54;7.00;99.90
17333;DHT22;8784;50.94667800;7.08448400;2023-01-31T01:56:27;7.00;99.90
17333;DHT22;8784;50.94667800;7.08448400;2023-01-31T01:59:02;7.00;99.90
17333;DHT22;8784;50.94667800;7.08448400;2023-01-31T02:01:34;7.00;99.90
17333;DHT22;8784;50.94667800;7.08448400;2023-01-31T02:04:02;6.90;99.90
17333;DHT22;8784;50.94667800;7.08448400;2023-01-31T02:06:30;6.90;99.90
17333;DHT22;8784;50.94667800;7.08448400;2023-01-31T02:08:57;6.90;99.90
17333;DHT22;8784;50.94667800;7.08448400;2023-01-31T02:11:25;6.90;99.90
17333;DHT22;8784;50.94667800;7.08448400;2023-01-31T02:13:59;6.90;99.90
17333;DHT22;8784;50.94667800;7.08448400;2023-01-31T02:16:26;6.90;99.90
17333;DHT22;8784;50.94667800;7.08448400;2023-01-31T02:18:55;6.90;99.90
17333;DHT22;8784;50.94667800;7.08448400;2023-01-31T02:34:08;6.90;99.90
17333;DHT22;8784;50.94667800;7.08448400;2023-01-31T02:36:47;6.90;99.90
17333;DHT22;8784;50.94667800;7.08448400;2023-01-31T02:39:24;6.90;99.90
17333;DHT22;8784;50.94667800;7.08448400;2023-01-31T02:41:56;6.90;99.90
17333;DHT22;8784;50.94667800;7.08448400;2023-01-31T02:44:28;6.90;99.90
17333;DHT22;8784;50.94667800;7.08448400;2023-01-31T02:47:23;6.80;99.90
17333;DHT22;8784;50.94667800;7.08448400;2023-01-31T02:49:59;6.80;99.90
17333;DHT22;8784;50.94667800;7.08448400;2023-01-31T02:52:32;6.80;99.90
17333;DHT22;8784;50.94667800;7.08448400;2023-01-31T02:55:07;6.70;99.90
17333;DHT22;8784;50.94667800;7.08448400;2023-01-31T02:57:56;6.70;99.90
17333;DHT22;8784;50.94667800;7.08448400;2023-01-31T03:00:25;6.70;99.90
17333;DHT22;8784;50.94667800;7.08448400;2023-01-31T03:02:52;6.70;99.90
17333;DHT22;8784;50.94667800;7.08448400;2023-01-31T03:05:22;6.60;99.90
17333;DHT22;8784;50.94667800;7.08448400;2023-01-31T03:07:52;6.60;99.90
17333;DHT22;8784;50.94667800;7.08448400;2023-01-31T03:10:41;6.60;99.90
17333;DHT22;8784;50.94667800;7.08448400;2023-01-31T03:13:30;6.60;99.90
17333;DHT22;8784;50.94667800;7.08448400;2023-01-31T03:16:05;6.60;99.90
17333;DHT22;8784;50.94667800;7.08448400;2023-01-31T03:18:56;6.60;99.90
17333;DHT22;8784;50.94667800;7.08448400;2023-01-31T03:21:31;6.60;99.90
17333;DHT22;8784;50.94667800;7.08448400;2023-01-31T03:24:02;6.60;99.90
17333;DHT22;8784;50.94667800;7.08448400;2023-01-31T03:26:31;6.50;99.90
17333;DHT22;8784;50.94667800;7.08448400;2023-01-31T03:29:00;6.50;99.90
17333;DHT22;8784;50.94667800;7.08448400;2023-01-31T03:31:31;6.50;99.90
17333;DHT22;8784;50.94667800;7.08448400;2023-01-31T03:34:03;6.50;99.90
17333;DHT22;8784;50.94667800;7.08448400;2023-01-31T03:36:36;6.50;99.90
17333;DHT22;8784;50.94667800;7.08448400;2023-01-31T03:39:15;6.50;99.90
17333;DHT22;8784;50.94667800;7.08448400;2023-01-31T03:41:51;6.50;99.90
17333;DHT22;8784;50.94667800;7.08448400;2023-01-31T03:44:26;6.50;99.90
17333;DHT22;8784;50.94667800;7.08448400;2023-01-31T03:47:01;6.50;99.90
17333;DHT22;8784;50.94667800;7.08448400;2023-01-31T03:49:30;6.40;99.90
17333;DHT22;8784;50.94667800;7.08448400;2023-01-31T03:52:04;6.40;99.90
17333;DHT22;8784;50.94667800;7.08448400;2023-01-31T03:54:35;6.30;99.90
17333;DHT22;8784;50.94667800;7.08448400;2023-01-31T03:57:07;6.30;99.90
17333;DHT22;8784;50.94667800;7.08448400;2023-01-31T03:59:37;6.30;99.90
17333;DHT22;8784;50.94667800;7.08448400;2023-01-31T04:02:09;6.30;99.90
17333;DHT22;8784;50.94667800;7.08448400;2023-01-31T04:04:39;6.30;99.90
17333;DHT22;8784;50.94667800;7.08448400;2023-01-31T04:07:09;6.30;99.90
17333;DHT22;8784;50.94667800;7.08448400;2023-01-31T04:09:38;6.20;99.90
17333;DHT22;8784;50.94667800;7.08448400;2023-01-31T04:12:05;6.20;99.90
17333;DHT22;8784;50.94667800;7.08448400;2023-01-31T04:14:32;6.10;99.90
17333;DHT22;8784;50.94667800;7.08448400;2023-01-31T04:16:59;6.20;99.90
17333;DHT22;8784;50.94667800;7.08448400;2023-01-31T04:19:26;6.00;99.90
17333;DHT22;8784;50.94667800;7.08448400;2023-01-31T04:21:53;6.00;99.90
17333;DHT22;8784;50.94667800;7.08448400;2023-01-31T04:24:21;5.90;99.90
17333;DHT22;8784;50.94667800;7.08448400;2023-01-31T04:26:48;5.90;99.90
17333;DHT22;8784;50.94667800;7.08448400;2023-01-31T04:29:16;6.50;99.90
17333;DHT22;8784;50.94667800;7.08448400;2023-01-31T04:31:43;5.80;99.90
17333;DHT22;8784;50.94667800;7.08448400;2023-01-31T04:34:11;5.80;99.90
17333;DHT22;8784;50.94667800;7.08448400;2023-01-31T04:36:38;5.70;99.90
17333;DHT22;8784;50.94667800;7.08448400;2023-01-31T04:39:05;5.60;99.90
17333;DHT22;8784;50.94667800;7.08448400;2023-01-31T04:41:37;5.60;99.90
17333;DHT22;8784;50.94667800;7.08448400;2023-01-31T04:44:04;5.50;99.90
17333;DHT22;8784;50.94667800;7.08448400;2023-01-31T04:46:31;5.50;99.90
17333;DHT22;8784;50.94667800;7.08448400;2023-01-31T04:48:58;5.40;99.90
17333;DHT22;8784;50.94667800;7.08448400;2023-01-31T04:51:25;5.40;99.90
17333;DHT22;8784;50.94667800;7.08448400;2023-01-31T04:53:52;5.30;99.90
17333;DHT22;8784;50.94667800;7.08448400;2023-01-31T04:56:19;5.30;99.90
17333;DHT22;8784;50.94667800;7.08448400;2023-01-31T04:58:48;5.30;99.90
17333;DHT22;8784;50.94667800;7.08448400;2023-01-31T05:01:15;5.30;99.90
17333;DHT22;8784;50.94667800;7.08448400;2023-01-31T05:03:42;5.30;99.90
17333;DHT22;8784;50.94667800;7.08448400;2023-01-31T05:06:09;5.20;99.90
17333;DHT22;8784;50.94667800;7.08448400;2023-01-31T05:08:36;5.20;99.90
17333;DHT22;8784;50.94667800;7.08448400;2023-01-31T05:11:03;5.20;99.90
17333;DHT22;8784;50.94667800;7.08448400;2023-01-31T05:13:32;5.20;99.90
17333;DHT22;8784;50.94667800;7.08448400;2023-01-31T05:16:09;5.10;99.90
17333;DHT22;8784;50.94667800;7.08448400;2023-01-31T05:18:39;5.10;99.90
17333;DHT22;8784;50.94667800;7.08448400;2023-01-31T05:21:06;5.10;99.90
17333;DHT22;8784;50.94667800;7.08448400;2023-01-31T05:23:34;5.00;99.90
17333;DHT22;8784;50.94667800;7.08448400;2023-01-31T05:26:01;5.10;99.90
17333;DHT22;8784;50.94667800;7.08448400;2023-01-31T05:28:28;5.00;99.90
17333;DHT22;8784;50.94667800;7.08448400;2023-01-31T05:31:01;5.00;99.90
17333;DHT22;8784;50.94667800;7.08448400;2023-01-31T05:33:30;4.90;99.90
17333;DHT22;8784;50.94667800;7.08448400;2023-01-31T05:35:58;4.90;99.90
17333;DHT22;8784;50.94667800;7.08448400;2023-01-31T05:38:26;4.90;99.90
17333;DHT22;8784;50.94667800;7.08448400;2023-01-31T05:40:57;5.60;99.90
17333;DHT22;8784;50.94667800;7.08448400;2023-01-31T05:43:24;4.90;99.90
17333;DHT22;8784;50.94667800;7.08448400;2023-01-31T05:45:51;4.80;99.90
17333;DHT22;8784;50.94667800;7.08448400;2023-01-31T05:48:18;4.80;99.90
17333;DHT22;8784;50.94667800;7.08448400;2023-01-31T05:50:48;4.80;99.90
17333;DHT22;8784;50.94667800;7.08448400;2023-01-31T05:53:14;4.80;99.90
17333;DHT22;8784;50.94667800;7.08448400;2023-01-31T05:55:43;4.80;99.90
17333;DHT22;8784;50.94667800;7.08448400;2023-01-31T05:58:10;4.80;99.90
17333;DHT22;8784;50.94667800;7.08448400;2023-01-31T06:00:37;5.20;99.90
17333;DHT22;8784;50.94667800;7.08448400;2023-01-31T06:03:04;4.80;99.90
17333;DHT22;8784;50.94667800;7.08448400;2023-01-31T06:05:31;4.90;99.90
17333;DHT22;8784;50.94667800;7.08448400;2023-01-31T06:08:00;4.90;99.90
17333;DHT22;8784;50.94667800;7.08448400;2023-01-31T06:10:27;4.90;99.90
17333;DHT22;8784;50.94667800;7.08448400;2023-01-31T06:12:54;5.00;99.90
17333;DHT22;8784;50.94667800;7.08448400;2023-01-31T06:15:21;5.00;99.90
17333;DHT22;8784;50.94667800;7.08448400;2023-01-31T06:17:48;5.00;99.90
17333;DHT22;8784;50.94667800;7.08448400;2023-01-31T06:20:15;5.10;99.90
17333;DHT22;8784;50.94667800;7.08448400;2023-01-31T06:22:42;5.10;99.90
17333;DHT22;8784;50.94667800;7.08448400;2023-01-31T06:25:11;5.20;99.90
17333;DHT22;8784;50.94667800;7.08448400;2023-01-31T06:27:38;5.10;99.90
17333;DHT22;8784;50.94667800;7.08448400;2023-01-31T06:30:06;5.20;99.90
17333;DHT22;8784;50.94667800;7.08448400;2023-01-31T06:32:33;5.20;99.90
17333;DHT22;8784;50.94667800;7.08448400;2023-01-31T06:35:00;5.20;99.90
17333;DHT22;8784;50.94667800;7.08448400;2023-01-31T06:37:27;5.20;99.90
17333;DHT22;8784;50.94667800;7.08448400;2023-01-31T06:39:54;5.20;99.90
17333;DHT22;8784;50.94667800;7.08448400;2023-01-31T06:42:23;5.30;99.90
17333;DHT22;8784;50.94667800;7.08448400;2023-01-31T06:44:50;5.30;99.90
17333;DHT22;8784;50.94667800;7.08448400;2023-01-31T06:47:17;5.30;99.90
17333;DHT22;8784;50.94667800;7.08448400;2023-01-31T06:49:44;5.40;99.90
17333;DHT22;8784;50.94667800;7.08448400;2023-01-31T06:52:11;5.40;99.90
17333;DHT22;8784;50.94667800;7.08448400;2023-01-31T06:54:38;5.40;99.90
17333;DHT22;8784;50.94667800;7.08448400;2023-01-31T06:57:05;5.40;99.90
17333;DHT22;8784;50.94667800;7.08448400;2023-01-31T06:59:33;5.50;99.90
17333;DHT22;8784;50.94667800;7.08448400;2023-01-31T07:02:00;5.50;99.90
17333;DHT22;8784;50.94667800;7.08448400;2023-01-31T07:04:27;5.50;99.90
17333;DHT22;8784;50.94667800;7.08448400;2023-01-31T07:06:54;5.50;99.90
17333;DHT22;8784;50.94667800;7.08448400;2023-01-31T07:09:22;5.60;99.90
17333;DHT22;8784;50.94667800;7.08448400;2023-01-31T07:11:49;5.60;99.90
17333;DHT22;8784;50.94667800;7.08448400;2023-01-31T07:14:16;5.60;99.90
17333;DHT22;8784;50.94667800;7.08448400;2023-01-31T07:16:45;5.60;99.90
17333;DHT22;8784;50.94667800;7.08448400;2023-01-31T07:19:12;5.70;99.90
17333;DHT22;8784;50.94667800;7.08448400;2023-01-31T07:21:38;5.70;99.90
17333;DHT22;8784;50.94667800;7.08448400;2023-01-31T07:24:07;5.70;99.90
17333;DHT22;8784;50.94667800;7.08448400;2023-01-31T07:26:35;5.70;99.90
17333;DHT22;8784;50.94667800;7.08448400;2023-01-31T07:29:02;5.70;99.90
17333;DHT22;8784;50.94667800;7.08448400;2023-01-31T07:31:29;5.80;99.90
17333;DHT22;8784;50.94667800;7.08448400;2023-01-31T07:33:58;5.80;99.90
17333;DHT22;8784;50.94667800;7.08448400;2023-01-31T07:36:26;5.80;99.90
17333;DHT22;8784;50.94667800;7.08448400;2023-01-31T07:38:53;5.90;99.90
17333;DHT22;8784;50.94667800;7.08448400;2023-01-31T07:41:21;5.90;99.90
17333;DHT22;8784;50.94667800;7.08448400;2023-01-31T07:43:49;6.00;99.90
17333;DHT22;8784;50.94667800;7.08448400;2023-01-31T07:46:16;6.60;99.90
17333;DHT22;8784;50.94667800;7.08448400;2023-01-31T07:48:43;6.00;99.90
17333;DHT22;8784;50.94667800;7.08448400;2023-01-31T07:51:12;6.10;99.90
17333;DHT22;8784;50.94667800;7.08448400;2023-01-31T07:53:40;6.00;99.90
17333;DHT22;8784;50.94667800;7.08448400;2023-01-31T07:56:10;6.00;99.90
17333;DHT22;8784;50.94667800;7.08448400;2023-01-31T07:58:38;6.00;99.90
17333;DHT22;8784;50.94667800;7.08448400;2023-01-31T08:01:06;6.20;99.90
17333;DHT22;8784;50.94667800;7.08448400;2023-01-31T08:03:50;6.20;99.90
17333;DHT22;8784;50.94667800;7.08448400;2023-01-31T08:06:19;6.30;99.90
17333;DHT22;8784;50.94667800;7.08448400;2023-01-31T08:08:46;6.40;99.90
17333;DHT22;8784;50.94667800;7.08448400;2023-01-31T08:11:13;6.50;99.90
17333;DHT22;8784;50.94667800;7.08448400;2023-01-31T08:13:41;6.60;99.90
17333;DHT22;8784;50.94667800;7.08448400;2023-01-31T08:16:09;6.60;99.90
17333;DHT22;8784;50.94667800;7.08448400;2023-01-31T08:18:37;6.70;99.90
17333;DHT22;8784;50.94667800;7.08448400;2023-01-31T08:21:05;6.80;99.90
17333;DHT22;8784;50.94667800;7.08448400;2023-01-31T08:23:35;6.80;99.90
17333;DHT22;8784;50.94667800;7.08448400;2023-01-31T08:26:05;6.90;99.90
17333;DHT22;8784;50.94667800;7.08448400;2023-01-31T08:28:35;7.00;99.90
17333;DHT22;8784;50.94667800;7.08448400;2023-01-31T08:31:04;7.10;99.90
17333;DHT22;8784;50.94667800;7.08448400;2023-01-31T08:33:31;7.10;99.90
17333;DHT22;8784;50.94667800;7.08448400;2023-01-31T08:36:08;7.30;99.90
17333;DHT22;8784;50.94667800;7.08448400;2023-01-31T08:38:37;7.30;99.90
17333;DHT22;8784;50.94667800;7.08448400;2023-01-31T08:41:04;7.40;99.90
17333;DHT22;8784;50.94667800;7.08448400;2023-01-31T08:43:32;7.40;99.90
17333;DHT22;8784;50.94667800;7.08448400;2023-01-31T08:45:59;7.20;99.90
17333;DHT22;8784;50.94667800;7.08448400;2023-01-31T08:48:26;7.50;99.90
17333;DHT22;8784;50.94667800;7.08448400;2023-01-31T08:50:53;7.50;99.90
17333;DHT22;8784;50.94667800;7.08448400;2023-01-31T08:53:20;7.50;99.90
17333;DHT22;8784;50.94667800;7.08448400;2023-01-31T08:55:49;7.60;99.90
17333;DHT22;8784;50.94667800;7.08448400;2023-01-31T08:58:16;7.60;99.90
17333;DHT22;8784;50.94667800;7.08448400;2023-01-31T09:00:44;7.70;99.90
17333;DHT22;8784;50.94667800;7.08448400;2023-01-31T09:03:13;7.70;99.90
17333;DHT22;8784;50.94667800;7.08448400;2023-01-31T09:05:42;7.70;99.90
17333;DHT22;8784;50.94667800;7.08448400;2023-01-31T09:08:09;7.70;99.90
17333;DHT22;8784;50.94667800;7.08448400;2023-01-31T09:10:36;7.70;99.90
17333;DHT22;8784;50.94667800;7.08448400;2023-01-31T09:13:05;7.70;99.90
17333;DHT22;8784;50.94667800;7.08448400;2023-01-31T09:15:32;7.80;99.90
17333;DHT22;8784;50.94667800;7.08448400;2023-01-31T09:17:59;7.80;99.90
17333;DHT22;8784;50.94667800;7.08448400;2023-01-31T09:20:26;7.80;99.90
17333;DHT22;8784;50.94667800;7.08448400;2023-01-31T09:22:54;7.80;99.90
17333;DHT22;8784;50.94667800;7.08448400;2023-01-31T09:25:21;7.80;99.90
17333;DHT22;8784;50.94667800;7.08448400;2023-01-31T09:27:48;7.80;99.90
17333;DHT22;8784;50.94667800;7.08448400;2023-01-31T09:30:19;7.80;99.90
17333;DHT22;8784;50.94667800;7.08448400;2023-01-31T09:32:47;7.80;99.90
17333;DHT22;8784;50.94667800;7.08448400;2023-01-31T09:35:14;7.80;99.90
17333;DHT22;8784;50.94667800;7.08448400;2023-01-31T09:37:43;7.80;99.90
17333;DHT22;8784;50.94667800;7.08448400;2023-01-31T09:40:16;7.80;99.90
17333;DHT22;8784;50.94667800;7.08448400;2023-01-31T09:42:48;7.80;99.90
17333;DHT22;8784;50.94667800;7.08448400;2023-01-31T09:45:27;7.80;99.90
17333;DHT22;8784;50.94667800;7.08448400;2023-01-31T09:47:57;7.80;99.90
17333;DHT22;8784;50.94667800;7.08448400;2023-01-31T09:50:32;7.80;99.90
17333;DHT22;8784;50.94667800;7.08448400;2023-01-31T09:53:00;7.80;99.90
17333;DHT22;8784;50.94667800;7.08448400;2023-01-31T09:55:41;7.80;99.90
17333;DHT22;8784;50.94667800;7.08448400;2023-01-31T09:58:15;7.80;99.90
17333;DHT22;8784;50.94667800;7.08448400;2023-01-31T10:00:47;7.70;99.90
17333;DHT22;8784;50.94667800;7.08448400;2023-01-31T10:03:25;7.70;99.90
17333;DHT22;8784;50.94667800;7.08448400;2023-01-31T10:05:59;7.60;99.90
17333;DHT22;8784;50.94667800;7.08448400;2023-01-31T10:08:37;7.50;99.90
17333;DHT22;8784;50.94667800;7.08448400;2023-01-31T10:11:10;7.60;99.90
17333;DHT22;8784;50.94667800;7.08448400;2023-01-31T10:13:44;7.60;99.90
17333;DHT22;8784;50.94667800;7.08448400;2023-01-31T10:16:21;7.50;99.90
17333;DHT22;8784;50.94667800;7.08448400;2023-01-31T10:18:56;7.50;99.90
17333;DHT22;8784;50.94667800;7.08448400;2023-01-31T10:21:29;7.40;99.90
17333;DHT22;8784;50.94667800;7.08448400;2023-01-31T10:23:59;7.30;99.90
17333;DHT22;8784;50.94667800;7.08448400;2023-01-31T10:26:31;7.40;99.90
17333;DHT22;8784;50.94667800;7.08448400;2023-01-31T10:29:04;7.50;99.90
17333;DHT22;8784;50.94667800;7.08448400;2023-01-31T10:31:41;7.60;99.90
17333;DHT22;8784;50.94667800;7.08448400;2023-01-31T10:34:14;7.60;99.90
17333;DHT22;8784;50.94667800;7.08448400;2023-01-31T10:36:45;7.80;99.90
17333;DHT22;8784;50.94667800;7.08448400;2023-01-31T10:39:20;7.90;99.90
17333;DHT22;8784;50.94667800;7.08448400;2023-01-31T10:42:04;8.10;99.90
17333;DHT22;8784;50.94667800;7.08448400;2023-01-31T10:44:40;8.10;99.90
17333;DHT22;8784;50.94667800;7.08448400;2023-01-31T10:47:12;8.10;99.90
17333;DHT22;8784;50.94667800;7.08448400;2023-01-31T10:49:41;8.10;99.90
17333;DHT22;8784;50.94667800;7.08448400;2023-01-31T10:52:26;8.10;99.90
17333;DHT22;8784;50.94667800;7.08448400;2023-01-31T10:55:06;8.10;99.90
17333;DHT22;8784;50.94667800;7.08448400;2023-01-31T10:57:36;8.10;99.90
17333;DHT22;8784;50.94667800;7.08448400;2023-01-31T11:00:05;8.00;99.90
17333;DHT22;8784;50.94667800;7.08448400;2023-01-31T11:02:33;8.10;99.90
17333;DHT22;8784;50.94667800;7.08448400;2023-01-31T11:05:00;8.10;99.90
17333;DHT22;8784;50.94667800;7.08448400;2023-01-31T11:07:29;8.20;99.90
17333;DHT22;8784;50.94667800;7.08448400;2023-01-31T11:09:56;8.30;99.90
17333;DHT22;8784;50.94667800;7.08448400;2023-01-31T11:12:39;8.40;99.90
17333;DHT22;8784;50.94667800;7.08448400;2023-01-31T11:15:14;8.50;99.90
17333;DHT22;8784;50.94667800;7.08448400;2023-01-31T11:17:45;8.60;99.90
17333;DHT22;8784;50.94667800;7.08448400;2023-01-31T11:20:21;8.70;99.90
17333;DHT22;8784;50.94667800;7.08448400;2023-01-31T11:22:51;8.70;99.90
17333;DHT22;8784;50.94667800;7.08448400;2023-01-31T11:25:19;8.70;99.90
17333;DHT22;8784;50.94667800;7.08448400;2023-01-31T11:27:48;8.70;99.90
17333;DHT22;8784;50.94667800;7.08448400;2023-01-31T11:30:20;8.80;99.90
17333;DHT22;8784;50.94667800;7.08448400;2023-01-31T11:32:49;8.90;99.90
17333;DHT22;8784;50.94667800;7.08448400;2023-01-31T11:35:26;9.00;99.90
17333;DHT22;8784;50.94667800;7.08448400;2023-01-31T11:37:55;9.00;99.90
17333;DHT22;8784;50.94667800;7.08448400;2023-01-31T11:40:28;9.10;99.90
17333;DHT22;8784;50.94667800;7.08448400;2023-01-31T11:42:58;9.20;99.90
17333;DHT22;8784;50.94667800;7.08448400;2023-01-31T11:45:28;9.20;99.90
17333;DHT22;8784;50.94667800;7.08448400;2023-01-31T11:48:03;9.30;99.90
17333;DHT22;8784;50.94667800;7.08448400;2023-01-31T11:50:36;9.30;99.90
17333;DHT22;8784;50.94667800;7.08448400;2023-01-31T11:53:12;9.20;99.90
17333;DHT22;8784;50.94667800;7.08448400;2023-01-31T11:55:42;9.10;99.90
17333;DHT22;8784;50.94667800;7.08448400;2023-01-31T11:58:16;9.20;99.90
17333;DHT22;8784;50.94667800;7.08448400;2023-01-31T12:00:52;9.20;99.90
17333;DHT22;8784;50.94667800;7.08448400;2023-01-31T12:03:22;9.10;99.90
17333;DHT22;8784;50.94667800;7.08448400;2023-01-31T12:05:58;9.10;99.90
17333;DHT22;8784;50.94667800;7.08448400;2023-01-31T12:08:27;9.10;99.90
17333;DHT22;8784;50.94667800;7.08448400;2023-01-31T12:10:55;9.10;99.90
17333;DHT22;8784;50.94667800;7.08448400;2023-01-31T12:13:23;9.10;99.90
17333;DHT22;8784;50.94667800;7.08448400;2023-01-31T12:15:53;9.10;99.90
17333;DHT22;8784;50.94667800;7.08448400;2023-01-31T12:19:01;9.10;99.90
17333;DHT22;8784;50.94667800;7.08448400;2023-01-31T12:21:46;9.00;99.90
17333;DHT22;8784;50.94667800;7.08448400;2023-01-31T12:24:22;9.00;99.90
17333;DHT22;8784;50.94667800;7.08448400;2023-01-31T12:26:54;9.10;99.90
17333;DHT22;8784;50.94667800;7.08448400;2023-01-31T12:29:39;9.10;99.90
17333;DHT22;8784;50.94667800;7.08448400;2023-01-31T12:32:20;9.10;99.90
17333;DHT22;8784;50.94667800;7.08448400;2023-01-31T12:35:09;9.20;99.90
17333;DHT22;8784;50.94667800;7.08448400;2023-01-31T12:37:45;9.10;99.90
17333;DHT22;8784;50.94667800;7.08448400;2023-01-31T12:40:28;9.10;99.90
17333;DHT22;8784;50.94667800;7.08448400;2023-01-31T12:43:01;9.10;99.90
17333;DHT22;8784;50.94667800;7.08448400;2023-01-31T12:45:47;9.00;99.90
17333;DHT22;8784;50.94667800;7.08448400;2023-01-31T12:48:57;9.00;99.90
17333;DHT22;8784;50.94667800;7.08448400;2023-01-31T12:51:38;9.00;99.90
17333;DHT22;8784;50.94667800;7.08448400;2023-01-31T12:54:17;9.00;99.90
17333;DHT22;8784;50.94667800;7.08448400;2023-01-31T12:57:01;9.20;99.90
17333;DHT22;8784;50.94667800;7.08448400;2023-01-31T12:59:44;9.10;99.90
17333;DHT22;8784;50.94667800;7.08448400;2023-01-31T13:02:30;9.20;99.90
17333;DHT22;8784;50.94667800;7.08448400;2023-01-31T13:05:03;9.20;99.90
17333;DHT22;8784;50.94667800;7.08448400;2023-01-31T13:07:39;9.20;99.90
17333;DHT22;8784;50.94667800;7.08448400;2023-01-31T13:10:24;9.20;99.90
17333;DHT22;8784;50.94667800;7.08448400;2023-01-31T13:12:52;9.20;99.90
17333;DHT22;8784;50.94667800;7.08448400;2023-01-31T13:15:27;9.10;99.90
17333;DHT22;8784;50.94667800;7.08448400;2023-01-31T13:18:00;9.00;99.90
17333;DHT22;8784;50.94667800;7.08448400;2023-01-31T13:20:32;9.10;99.90
17333;DHT22;8784;50.94667800;7.08448400;2023-01-31T13:23:05;9.00;99.90
17333;DHT22;8784;50.94667800;7.08448400;2023-01-31T13:25:37;9.10;99.90
17333;DHT22;8784;50.94667800;7.08448400;2023-01-31T13:28:12;9.10;99.90
17333;DHT22;8784;50.94667800;7.08448400;2023-01-31T13:30:44;9.10;99.90
17333;DHT22;8784;50.94667800;7.08448400;2023-01-31T13:33:28;9.10;99.90
17333;DHT22;8784;50.94667800;7.08448400;2023-01-31T13:36:06;9.10;99.90
17333;DHT22;8784;50.94667800;7.08448400;2023-01-31T13:38:38;9.10;99.90
17333;DHT22;8784;50.94667800;7.08448400;2023-01-31T13:41:12;9.10;99.90
17333;DHT22;8784;50.94667800;7.08448400;2023-01-31T13:43:43;9.10;99.90
17333;DHT22;8784;50.94667800;7.08448400;2023-01-31T13:46:12;9.10;99.90
17333;DHT22;8784;50.94667800;7.08448400;2023-01-31T13:48:47;9.10;99.90
17333;DHT22;8784;50.94667800;7.08448400;2023-01-31T13:51:20;9.10;99.90
17333;DHT22;8784;50.94667800;7.08448400;2023-01-31T13:53:53;9.00;99.90
17333;DHT22;8784;50.94667800;7.08448400;2023-01-31T13:56:24;9.00;99.90
17333;DHT22;8784;50.94667800;7.08448400;2023-01-31T13:58:54;8.90;99.90
17333;DHT22;8784;50.94667800;7.08448400;2023-01-31T14:01:23;8.80;99.90
17333;DHT22;8784;50.94667800;7.08448400;2023-01-31T14:04:26;8.70;99.90
17333;DHT22;8784;50.94667800;7.08448400;2023-01-31T14:06:55;8.50;99.90
17333;DHT22;8784;50.94667800;7.08448400;2023-01-31T14:09:26;8.40;99.90
17333;DHT22;8784;50.94667800;7.08448400;2023-01-31T14:11:55;8.40;99.90
17333;DHT22;8784;50.94667800;7.08448400;2023-01-31T14:14:38;8.30;99.90
17333;DHT22;8784;50.94667800;7.08448400;2023-01-31T14:17:10;8.20;99.90
17333;DHT22;8784;50.94667800;7.08448400;2023-01-31T14:22:35;8.20;99.90